Time,TemperatureF,DewpointF,PressureIn,WindDirection,WindDirectionDegrees,WindSpeedMPH,WindSpeedGustMPH,Humidity,HourlyPrecipIn,Conditions,Clouds,dailyrainin,SoftwareType,DateUTC
2015-09-03 00:04:00,64.7,51.5,29.90,WSW,240,11.0,15.0,62,0.00,,,0.00,Weather View 32 v70,2015-09-03 07:04:00,
2015-09-03 00:09:00,64.2,51.0,29.90,WSW,250,5.0,12.0,62,0.00,,,0.00,Weather View 32 v70,2015-09-03 07:09:00,
2015-09-03 00:14:00,64.3,51.1,29.90,WNW,283,5.0,12.0,62,0.00,,,0.00,Weather View 32 v70,2015-09-03 07:14:00,
2015-09-03 00:19:00,64.0,50.9,29.90,West,267,6.0,12.0,62,0.00,,,0.00,Weather View 32 v70,2015-09-03 07:19:00,
2015-09-03 00:24:00,63.7,50.6,29.90,West,270,8.0,12.0,62,0.00,,,0.00,Weather View 32 v70,2015-09-03 07:24:00,
2015-09-03 00:29:00,64.1,51.0,29.90,SW,218,6.0,12.0,63,0.00,,,0.00,Weather View 32 v70,2015-09-03 07:29:00,
2015-09-03 00:34:00,63.7,50.7,29.90,West,262,6.0,12.0,63,0.00,,,0.00,Weather View 32 v70,2015-09-03 07:34:00,
2015-09-03 00:39:00,63.6,50.7,29.90,West,262,4.0,12.0,63,0.00,,,0.00,Weather View 32 v70,2015-09-03 07:39:00,
2015-09-03 00:44:00,63.5,50.6,29.90,WSW,243,3.0,13.0,63,0.00,,,0.00,Weather View 32 v70,2015-09-03 07:44:00,
2015-09-03 00:49:00,63.3,50.7,29.90,SSW,200,3.0,13.0,64,0.00,,,0.00,Weather View 32 v70,2015-09-03 07:49:00,
2015-09-03 00:54:00,63.2,50.5,29.90,SW,222,11.0,13.0,63,0.00,,,0.00,Weather View 32 v70,2015-09-03 07:54:00,
2015-09-03 00:59:00,63.4,50.6,29.90,South,176,6.0,13.0,63,0.00,,,0.00,Weather View 32 v70,2015-09-03 07:59:00,
2015-09-03 01:04:00,63.2,50.4,29.90,WSW,253,5.0,13.0,63,0.00,,,0.00,Weather View 32 v70,2015-09-03 08:04:00,
2015-09-03 01:09:00,63.2,50.4,29.90,SW,218,13.0,13.0,63,0.00,,,0.00,Weather View 32 v70,2015-09-03 08:09:00,
2015-09-03 01:14:00,62.7,49.9,29.90,WSW,239,3.0,13.0,63,0.00,,,0.00,Weather View 32 v70,2015-09-03 08:14:00,
2015-09-03 01:19:00,62.8,50.1,29.90,SSW,204,6.0,13.0,63,0.00,,,0.00,Weather View 32 v70,2015-09-03 08:19:00,
2015-09-03 01:24:00,62.7,50.1,29.90,SW,222,7.0,13.0,63,0.00,,,0.00,Weather View 32 v70,2015-09-03 08:24:00,
2015-09-03 01:29:00,62.5,50.0,29.90,SW,222,5.0,13.0,64,0.00,,,0.00,Weather View 32 v70,2015-09-03 08:29:00,
2015-09-03 01:34:00,62.4,49.9,29.90,WSW,238,6.0,13.0,64,0.00,,,0.00,Weather View 32 v70,2015-09-03 08:34:00,
2015-09-03 01:39:00,62.2,50.0,29.90,WSW,240,4.0,13.0,64,0.00,,,0.00,Weather View 32 v70,2015-09-03 08:39:00,
2015-09-03 01:44:00,62.6,50.3,29.90,SE,128,3.0,13.0,64,0.00,,,0.00,Weather View 32 v70,2015-09-03 08:44:00,
2015-09-03 01:49:00,62.2,50.1,29.90,SSW,208,3.0,13.0,65,0.00,,,0.00,Weather View 32 v70,2015-09-03 08:49:00,
2015-09-03 01:54:00,62.2,50.4,29.90,SW,219,7.0,13.0,65,0.00,,,0.00,Weather View 32 v70,2015-09-03 08:54:00,
2015-09-03 01:59:00,62.3,50.5,29.90,SSW,212,6.0,13.0,65,0.00,,,0.00,Weather View 32 v70,2015-09-03 08:59:00,
2015-09-03 02:04:00,61.9,50.2,29.89,WSW,253,6.0,13.0,66,0.00,,,0.00,Weather View 32 v70,2015-09-03 09:04:00,
2015-09-03 02:09:00,62.2,50.6,29.89,WSW,239,4.0,13.0,66,0.00,,,0.00,Weather View 32 v70,2015-09-03 09:09:00,
2015-09-03 02:14:00,61.8,50.3,29.89,WSW,255,3.0,13.0,66,0.00,,,0.00,Weather View 32 v70,2015-09-03 09:14:00,
2015-09-03 02:19:00,61.8,50.1,29.89,SSW,200,5.0,13.0,66,0.00,,,0.00,Weather View 32 v70,2015-09-03 09:19:00,
2015-09-03 02:24:00,61.7,50.2,29.89,SW,228,2.0,13.0,66,0.00,,,0.00,Weather View 32 v70,2015-09-03 09:24:00,
2015-09-03 02:29:00,61.7,50.2,29.89,SSW,210,2.0,12.0,66,0.00,,,0.00,Weather View 32 v70,2015-09-03 09:29:00,
2015-09-03 02:34:00,61.4,49.8,29.89,SSW,204,2.0,12.0,66,0.00,,,0.00,Weather View 32 v70,2015-09-03 09:34:00,
2015-09-03 02:39:00,61.7,50.3,29.89,SSW,205,3.0,11.0,66,0.00,,,0.00,Weather View 32 v70,2015-09-03 09:39:00,
2015-09-03 02:44:00,61.4,49.7,29.89,East,86,1.0,11.0,66,0.00,,,0.00,Weather View 32 v70,2015-09-03 09:44:00,
2015-09-03 02:49:00,61.5,50.0,29.90,SSW,200,3.0,11.0,66,0.00,,,0.00,Weather View 32 v70,2015-09-03 09:49:00,
2015-09-03 02:54:00,61.5,50.0,29.90,SSW,193,2.0,11.0,66,0.00,,,0.00,Weather View 32 v70,2015-09-03 09:54:00,
2015-09-03 02:59:00,61.5,49.8,29.90,South,170,7.0,11.0,66,0.00,,,0.00,Weather View 32 v70,2015-09-03 09:59:00,
2015-09-03 03:04:00,61.5,49.7,29.90,WSW,245,2.0,11.0,65,0.00,,,0.00,Weather View 32 v70,2015-09-03 10:04:00,
2015-09-03 03:09:00,61.5,49.7,29.90,SW,229,3.0,11.0,65,0.00,,,0.00,Weather View 32 v70,2015-09-03 10:09:00,
2015-09-03 03:14:00,61.4,49.5,29.90,South,181,5.0,11.0,65,0.00,,,0.00,Weather View 32 v70,2015-09-03 10:14:00,
2015-09-03 03:19:00,61.4,49.8,29.90,South,187,0.0,11.0,66,0.00,,,0.00,Weather View 32 v70,2015-09-03 10:19:00,
2015-09-03 03:24:00,61.4,49.5,29.90,SW,228,4.0,11.0,65,0.00,,,0.00,Weather View 32 v70,2015-09-03 10:24:00,
2015-09-03 03:29:00,61.3,49.7,29.90,WSW,243,0.0,10.0,66,0.00,,,0.00,Weather View 32 v70,2015-09-03 10:29:00,
2015-09-03 03:34:00,61.4,49.7,29.90,SW,236,6.0,10.0,66,0.00,,,0.00,Weather View 32 v70,2015-09-03 10:34:00,
2015-09-03 03:39:00,61.4,50.1,29.90,South,173,4.0,10.0,67,0.00,,,0.00,Weather View 32 v70,2015-09-03 10:39:00,
2015-09-03 03:44:00,61.3,50.1,29.90,SW,221,2.0,10.0,67,0.00,,,0.00,Weather View 32 v70,2015-09-03 10:44:00,
2015-09-03 03:49:00,61.0,50.1,29.90,WSW,257,3.0,10.0,67,0.00,,,0.00,Weather View 32 v70,2015-09-03 10:49:00,
2015-09-03 03:54:00,61.0,50.1,29.90,SW,232,4.0,10.0,67,0.00,,,0.00,Weather View 32 v70,2015-09-03 10:54:00,
2015-09-03 03:59:00,61.2,50.7,29.90,SW,214,2.0,10.0,68,0.00,,,0.00,Weather View 32 v70,2015-09-03 10:59:00,
2015-09-03 04:04:00,60.8,50.3,29.90,SSW,198,4.0,10.0,68,0.00,,,0.00,Weather View 32 v70,2015-09-03 11:04:00,
2015-09-03 04:09:00,61.0,50.9,29.90,SW,221,5.0,10.0,69,0.00,,,0.00,Weather View 32 v70,2015-09-03 11:09:00,
2015-09-03 04:14:00,60.4,50.8,29.90,West,259,4.0,10.0,71,0.00,,,0.00,Weather View 32 v70,2015-09-03 11:14:00,
2015-09-03 04:19:00,60.6,50.5,29.90,SW,229,5.0,10.0,69,0.00,,,0.00,Weather View 32 v70,2015-09-03 11:19:00,
2015-09-03 04:24:00,60.7,50.8,29.90,South,191,2.0,11.0,70,0.00,,,0.00,Weather View 32 v70,2015-09-03 11:24:00,
2015-09-03 04:29:00,60.7,51.2,29.90,ENE,73,2.0,11.0,71,0.00,,,0.00,Weather View 32 v70,2015-09-03 11:29:00,
2015-09-03 04:34:00,60.4,50.5,29.90,West,269,4.0,11.0,70,0.00,,,0.00,Weather View 32 v70,2015-09-03 11:34:00,
2015-09-03 04:39:00,60.8,51.0,29.90,SW,233,9.0,11.0,70,0.00,,,0.00,Weather View 32 v70,2015-09-03 11:39:00,
2015-09-03 04:44:00,60.5,51.2,29.90,SSW,203,5.0,11.0,72,0.00,,,0.00,Weather View 32 v70,2015-09-03 11:44:00,
2015-09-03 04:49:00,60.5,51.2,29.90,WSW,239,4.0,11.0,72,0.00,,,0.00,Weather View 32 v70,2015-09-03 11:49:00,
2015-09-03 04:54:00,60.5,50.9,29.90,SW,222,3.0,11.0,71,0.00,,,0.00,Weather View 32 v70,2015-09-03 11:54:00,
2015-09-03 04:59:00,60.1,50.6,29.90,West,280,4.0,11.0,71,0.00,,,0.00,Weather View 32 v70,2015-09-03 11:59:00,
2015-09-03 05:04:00,60.8,51.5,29.90,WSW,249,5.0,11.0,72,0.00,,,0.00,Weather View 32 v70,2015-09-03 12:04:00,
2015-09-03 05:09:00,60.1,50.3,29.90,SW,235,9.0,11.0,70,0.00,,,0.00,Weather View 32 v70,2015-09-03 12:09:00,
2015-09-03 05:14:00,60.7,50.9,29.90,SSW,194,4.0,11.0,70,0.00,,,0.00,Weather View 32 v70,2015-09-03 12:14:00,
2015-09-03 05:19:00,60.2,50.6,29.90,SSW,205,4.0,11.0,71,0.00,,,0.00,Weather View 32 v70,2015-09-03 12:19:00,
2015-09-03 05:24:00,59.8,50.8,29.90,West,269,1.0,10.0,72,0.00,,,0.00,Weather View 32 v70,2015-09-03 12:24:00,
2015-09-03 05:29:00,59.8,50.7,29.90,South,180,7.0,10.0,72,0.00,,,0.00,Weather View 32 v70,2015-09-03 12:29:00,
2015-09-03 05:34:00,60.1,51.0,29.91,SW,217,2.0,10.0,72,0.00,,,0.00,Weather View 32 v70,2015-09-03 12:34:00,
2015-09-03 05:39:00,60.1,51.2,29.91,SSE,165,3.0,10.0,72,0.00,,,0.00,Weather View 32 v70,2015-09-03 12:39:00,
2015-09-03 05:44:00,60.0,51.1,29.91,WSW,256,6.0,10.0,73,0.00,,,0.00,Weather View 32 v70,2015-09-03 12:44:00,
2015-09-03 05:49:00,60.2,51.0,29.91,West,267,6.0,10.0,72,0.00,,,0.00,Weather View 32 v70,2015-09-03 12:49:00,
2015-09-03 05:54:00,59.9,51.3,29.91,South,177,4.0,12.0,73,0.00,,,0.00,Weather View 32 v70,2015-09-03 12:54:00,
2015-09-03 05:59:00,59.8,51.1,29.91,SW,221,1.0,13.0,73,0.00,,,0.00,Weather View 32 v70,2015-09-03 12:59:00,
2015-09-03 06:04:00,59.9,51.3,29.91,WSW,240,4.0,13.0,73,0.00,,,0.00,Weather View 32 v70,2015-09-03 13:04:00,
2015-09-03 06:09:00,60.2,51.5,29.92,WSW,243,5.0,13.0,73,0.00,,,0.00,Weather View 32 v70,2015-09-03 13:09:00,
2015-09-03 06:14:00,60.8,52.7,29.92,West,273,4.0,13.0,75,0.00,,,0.00,Weather View 32 v70,2015-09-03 13:14:00,
2015-09-03 06:19:00,61.1,51.8,29.92,WNW,283,5.0,13.0,72,0.00,,,0.00,Weather View 32 v70,2015-09-03 13:19:00,
2015-09-03 06:24:00,60.6,51.8,29.92,West,280,4.0,13.0,73,0.00,,,0.00,Weather View 32 v70,2015-09-03 13:24:00,
2015-09-03 06:29:00,60.8,52.8,29.92,SW,226,5.0,13.0,75,0.00,,,0.00,Weather View 32 v70,2015-09-03 13:29:00,
2015-09-03 06:34:00,60.5,52.4,29.92,West,276,1.0,13.0,75,0.00,,,0.00,Weather View 32 v70,2015-09-03 13:34:00,
2015-09-03 06:39:00,59.9,51.7,29.92,South,191,0.0,13.0,74,0.00,,,0.00,Weather View 32 v70,2015-09-03 13:39:00,
2015-09-03 06:44:00,60.5,52.2,29.92,SW,228,1.0,13.0,74,0.00,,,0.00,Weather View 32 v70,2015-09-03 13:44:00,
2015-09-03 06:49:00,60.2,52.8,29.93,WSW,239,3.0,13.0,77,0.00,,,0.00,Weather View 32 v70,2015-09-03 13:49:00,
2015-09-03 06:54:00,59.8,51.9,29.93,West,267,2.0,13.0,75,0.00,,,0.00,Weather View 32 v70,2015-09-03 13:54:00,
2015-09-03 06:59:00,60.0,52.3,29.93,SSW,198,2.0,13.0,76,0.00,,,0.00,Weather View 32 v70,2015-09-03 13:59:00,
2015-09-03 07:04:00,60.0,51.7,29.93,SSE,163,1.0,13.0,74,0.00,,,0.00,Weather View 32 v70,2015-09-03 14:04:00,
2015-09-03 07:09:00,59.9,51.8,29.93,SSW,201,3.0,10.0,75,0.00,,,0.00,Weather View 32 v70,2015-09-03 14:09:00,
2015-09-03 07:14:00,59.4,51.2,29.93,South,183,3.0,10.0,74,0.00,,,0.00,Weather View 32 v70,2015-09-03 14:14:00,
2015-09-03 07:19:00,59.4,51.5,29.93,WSW,243,4.0,10.0,75,0.00,,,0.00,Weather View 32 v70,2015-09-03 14:19:00,
2015-09-03 07:24:00,60.1,52.1,29.93,SSW,194,5.0,10.0,75,0.00,,,0.00,Weather View 32 v70,2015-09-03 14:24:00,
2015-09-03 07:29:00,60.2,52.0,29.93,South,183,3.0,10.0,74,0.00,,,0.00,Weather View 32 v70,2015-09-03 14:29:00,
2015-09-03 07:34:00,60.1,51.9,29.93,SW,221,1.0,10.0,74,0.00,,,0.00,Weather View 32 v70,2015-09-03 14:34:00,
2015-09-03 07:39:00,60.5,52.3,29.94,WSW,243,4.0,10.0,74,0.00,,,0.00,Weather View 32 v70,2015-09-03 14:39:00,
2015-09-03 07:44:00,60.4,51.4,29.94,South,181,3.0,10.0,72,0.00,,,0.00,Weather View 32 v70,2015-09-03 14:44:00,
2015-09-03 07:49:00,60.8,52.0,29.94,WSW,250,5.0,10.0,73,0.00,,,0.00,Weather View 32 v70,2015-09-03 14:49:00,
2015-09-03 07:54:00,61.3,52.1,29.94,WNW,300,2.0,11.0,72,0.00,,,0.00,Weather View 32 v70,2015-09-03 14:54:00,
2015-09-03 07:59:00,61.7,51.9,29.94,SSW,208,2.0,11.0,70,0.00,,,0.00,Weather View 32 v70,2015-09-03 14:59:00,
2015-09-03 08:04:00,61.5,51.6,29.94,SSW,193,0.0,11.0,70,0.00,,,0.00,Weather View 32 v70,2015-09-03 15:04:00,
2015-09-03 08:09:00,61.9,51.7,29.94,South,187,1.0,11.0,69,0.00,,,0.00,Weather View 32 v70,2015-09-03 15:09:00,
2015-09-03 08:14:00,62.3,51.2,29.94,WSW,246,7.0,11.0,67,0.00,,,0.00,Weather View 32 v70,2015-09-03 15:14:00,
2015-09-03 08:19:00,62.4,51.5,29.94,SSW,205,6.0,11.0,68,0.00,,,0.00,Weather View 32 v70,2015-09-03 15:19:00,
2015-09-03 08:24:00,62.4,51.0,29.94,SSE,163,5.0,11.0,66,0.00,,,0.00,Weather View 32 v70,2015-09-03 15:24:00,
2015-09-03 08:29:00,62.6,51.4,29.94,SSW,200,6.0,13.0,67,0.00,,,0.00,Weather View 32 v70,2015-09-03 15:29:00,
2015-09-03 08:34:00,63.9,51.7,29.94,SSW,211,4.0,13.0,65,0.00,,,0.00,Weather View 32 v70,2015-09-03 15:34:00,
2015-09-03 08:39:00,64.2,51.7,29.94,SW,217,7.0,13.0,64,0.00,,,0.00,Weather View 32 v70,2015-09-03 15:39:00,
2015-09-03 08:44:00,64.7,52.2,29.94,West,269,5.0,13.0,64,0.00,,,0.00,Weather View 32 v70,2015-09-03 15:44:00,
2015-09-03 08:49:00,65.7,51.7,29.94,SSW,212,4.0,13.0,61,0.00,,,0.00,Weather View 32 v70,2015-09-03 15:49:00,
2015-09-03 08:54:00,65.6,51.8,29.94,SSW,198,3.0,13.0,61,0.00,,,0.00,Weather View 32 v70,2015-09-03 15:54:00,
2015-09-03 08:59:00,65.3,51.2,29.94,WSW,252,1.0,13.0,60,0.00,,,0.00,Weather View 32 v70,2015-09-03 15:59:00,
2015-09-03 09:04:00,66.1,51.8,29.94,SW,224,8.0,13.0,60,0.00,,,0.00,Weather View 32 v70,2015-09-03 16:04:00,
2015-09-03 09:09:00,66.3,51.6,29.94,SW,226,6.0,13.0,59,0.00,,,0.00,Weather View 32 v70,2015-09-03 16:09:00,
2015-09-03 09:14:00,66.8,51.3,29.94,West,278,5.0,13.0,58,0.00,,,0.00,Weather View 32 v70,2015-09-03 16:14:00,
2015-09-03 09:19:00,67.2,51.8,29.95,West,266,3.0,13.0,58,0.00,,,0.00,Weather View 32 v70,2015-09-03 16:19:00,
2015-09-03 09:24:00,66.9,51.2,29.95,SE,139,3.0,14.0,57,0.00,,,0.00,Weather View 32 v70,2015-09-03 16:24:00,
2015-09-03 09:29:00,66.8,51.4,29.94,SW,218,7.0,14.0,58,0.00,,,0.00,Weather View 32 v70,2015-09-03 16:29:00,
2015-09-03 09:34:00,69.3,51.7,29.94,West,280,5.0,14.0,54,0.00,,,0.00,Weather View 32 v70,2015-09-03 16:34:00,
2015-09-03 09:39:00,69.6,52.9,29.94,South,190,5.0,14.0,55,0.00,,,0.00,Weather View 32 v70,2015-09-03 16:39:00,
2015-09-03 09:44:00,69.1,52.2,29.94,West,270,4.0,14.0,55,0.00,,,0.00,Weather View 32 v70,2015-09-03 16:44:00,
2015-09-03 09:49:00,69.3,51.9,29.94,SW,217,7.0,14.0,54,0.00,,,0.00,Weather View 32 v70,2015-09-03 16:49:00,
2015-09-03 09:54:00,69.5,51.6,29.94,WSW,242,6.0,14.0,53,0.00,,,0.00,Weather View 32 v70,2015-09-03 16:54:00,
2015-09-03 09:59:00,70.7,51.3,29.94,WSW,239,5.0,14.0,50,0.00,,,0.00,Weather View 32 v70,2015-09-03 16:59:00,
2015-09-03 10:04:00,69.4,49.8,29.94,SSW,201,7.0,14.0,50,0.00,,,0.00,Weather View 32 v70,2015-09-03 17:04:00,
2015-09-03 10:09:00,70.4,50.5,29.94,SSW,195,2.0,14.0,50,0.00,,,0.00,Weather View 32 v70,2015-09-03 17:09:00,
2015-09-03 10:19:00,71.9,50.1,29.94,WSW,243,5.0,15.0,46,0.00,,,0.00,Weather View 32 v70,2015-09-03 17:19:00,
2015-09-03 10:24:00,72.4,49.9,29.94,West,262,6.0,15.0,45,0.00,,,0.00,Weather View 32 v70,2015-09-03 17:24:00,
2015-09-03 10:29:00,72.7,49.3,29.94,SSW,197,1.0,15.0,44,0.00,,,0.00,Weather View 32 v70,2015-09-03 17:29:00,
2015-09-03 10:34:00,73.5,49.3,29.94,SSW,198,4.0,15.0,43,0.00,,,0.00,Weather View 32 v70,2015-09-03 17:34:00,
2015-09-03 10:39:00,72.6,49.3,29.94,SW,226,5.0,15.0,44,0.00,,,0.00,Weather View 32 v70,2015-09-03 17:39:00,
2015-09-03 10:44:00,73.8,49.0,29.94,SSW,203,4.0,15.0,42,0.00,,,0.00,Weather View 32 v70,2015-09-03 17:44:00,
2015-09-03 10:49:00,73.7,47.4,29.94,NW,319,2.0,15.0,39,0.00,,,0.00,Weather View 32 v70,2015-09-03 17:49:00,
2015-09-03 10:54:00,74.6,48.9,29.94,SW,232,6.0,15.0,41,0.00,,,0.00,Weather View 32 v70,2015-09-03 17:54:00,
2015-09-03 10:59:00,75.4,49.0,29.94,SW,235,8.0,15.0,40,0.00,,,0.00,Weather View 32 v70,2015-09-03 17:59:00,
2015-09-03 11:04:00,74.6,48.7,29.94,South,169,5.0,15.0,40,0.00,,,0.00,Weather View 32 v70,2015-09-03 18:04:00,
2015-09-03 11:09:00,76.4,48.3,29.94,SSW,200,9.0,15.0,37,0.00,,,0.00,Weather View 32 v70,2015-09-03 18:09:00,
2015-09-03 11:19:00,77.3,48.5,29.94,SSW,212,3.0,14.0,36,0.00,,,0.00,Weather View 32 v70,2015-09-03 18:19:00,
2015-09-03 11:24:00,76.7,48.4,29.93,South,170,4.0,14.0,37,0.00,,,0.00,Weather View 32 v70,2015-09-03 18:24:00,
2015-09-03 11:29:00,74.8,48.2,29.93,West,274,5.0,14.0,39,0.00,,,0.00,Weather View 32 v70,2015-09-03 18:29:00,
2015-09-03 11:34:00,77.8,47.9,29.93,SSW,207,5.0,14.0,35,0.00,,,0.00,Weather View 32 v70,2015-09-03 18:34:00,
2015-09-03 11:39:00,78.7,47.5,29.93,SSW,204,6.0,14.0,34,0.00,,,0.00,Weather View 32 v70,2015-09-03 18:39:00,
2015-09-03 11:44:00,77.1,47.3,29.93,SW,229,4.0,14.0,35,0.00,,,0.00,Weather View 32 v70,2015-09-03 18:44:00,
2015-09-03 11:49:00,78.8,48.3,29.93,SSW,205,3.0,15.0,34,0.00,,,0.00,Weather View 32 v70,2015-09-03 18:49:00,
2015-09-03 11:54:00,78.9,48.1,29.93,WSW,239,4.0,15.0,34,0.00,,,0.00,Weather View 32 v70,2015-09-03 18:54:00,
2015-09-03 11:59:00,79.2,48.6,29.93,West,269,5.0,15.0,34,0.00,,,0.00,Weather View 32 v70,2015-09-03 18:59:00,
2015-09-03 12:04:00,79.2,47.5,29.93,SW,222,5.0,15.0,33,0.00,,,0.00,Weather View 32 v70,2015-09-03 19:04:00,
2015-09-03 12:09:00,79.9,46.8,29.92,West,277,5.0,15.0,31,0.00,,,0.00,Weather View 32 v70,2015-09-03 19:09:00,
2015-09-03 12:14:00,80.4,47.1,29.92,SW,225,4.0,15.0,31,0.00,,,0.00,Weather View 32 v70,2015-09-03 19:14:00,
2015-09-03 12:19:00,79.1,47.2,29.92,NW,304,2.0,15.0,33,0.00,,,0.00,Weather View 32 v70,2015-09-03 19:19:00,
2015-09-03 12:24:00,81.3,47.1,29.92,NW,304,1.0,15.0,30,0.00,,,0.00,Weather View 32 v70,2015-09-03 19:24:00,
2015-09-03 12:30:00,81.0,46.0,29.92,SW,214,6.0,15.0,29,0.00,,,0.00,Weather View 32 v70,2015-09-03 19:30:00,
2015-09-03 12:35:00,80.3,46.6,29.92,SW,225,2.0,15.0,31,0.00,,,0.00,Weather View 32 v70,2015-09-03 19:35:00,
2015-09-03 12:40:00,82.6,45.5,29.91,WSW,245,8.0,15.0,27,0.00,,,0.00,Weather View 32 v70,2015-09-03 19:40:00,
2015-09-03 12:45:00,80.5,45.1,29.91,SSE,166,6.0,15.0,29,0.00,,,0.00,Weather View 32 v70,2015-09-03 19:45:00,
2015-09-03 12:50:00,80.7,44.8,29.91,SSW,198,1.0,15.0,28,0.00,,,0.00,Weather View 32 v70,2015-09-03 19:50:00,
2015-09-03 12:55:00,81.2,45.5,29.91,ENE,66,2.0,12.0,29,0.00,,,0.00,Weather View 32 v70,2015-09-03 19:55:00,
2015-09-03 13:00:00,81.6,46.5,29.91,WNW,284,6.0,12.0,29,0.00,,,0.00,Weather View 32 v70,2015-09-03 20:00:00,
2015-09-03 13:05:00,82.1,44.9,29.90,South,172,6.0,12.0,27,0.00,,,0.00,Weather View 32 v70,2015-09-03 20:05:00,
2015-09-03 13:10:00,82.2,44.2,29.90,SSE,153,2.0,12.0,26,0.00,,,0.00,Weather View 32 v70,2015-09-03 20:10:00,
2015-09-03 13:15:00,82.1,45.1,29.90,SW,224,2.0,12.0,27,0.00,,,0.00,Weather View 32 v70,2015-09-03 20:15:00,
2015-09-03 13:20:00,82.8,43.6,29.90,SE,146,7.0,12.0,25,0.00,,,0.00,Weather View 32 v70,2015-09-03 20:20:00,
2015-09-03 13:25:00,83.1,43.6,29.90,ESE,114,2.0,13.0,25,0.00,,,0.00,Weather View 32 v70,2015-09-03 20:25:00,
2015-09-03 13:30:00,82.3,43.4,29.90,SSE,158,0.0,13.0,26,0.00,,,0.00,Weather View 32 v70,2015-09-03 20:30:00,
2015-09-03 13:35:00,83.4,41.4,29.89,SW,221,5.0,13.0,23,0.00,,,0.00,Weather View 32 v70,2015-09-03 20:35:00,
2015-09-03 13:40:00,82.4,40.4,29.89,SE,145,4.0,13.0,23,0.00,,,0.00,Weather View 32 v70,2015-09-03 20:40:00,
2015-09-03 13:45:00,82.4,42.2,29.89,SE,138,7.0,13.0,24,0.00,,,0.00,Weather View 32 v70,2015-09-03 20:45:00,
2015-09-03 13:50:00,81.6,42.3,29.89,SSW,197,2.0,13.0,25,0.00,,,0.00,Weather View 32 v70,2015-09-03 20:50:00,
2015-09-03 13:55:00,82.5,41.9,29.89,SE,136,6.0,13.0,24,0.00,,,0.00,Weather View 32 v70,2015-09-03 20:55:00,
2015-09-03 14:00:00,81.7,41.4,29.88,SSE,153,3.0,13.0,24,0.00,,,0.00,Weather View 32 v70,2015-09-03 21:00:00,
2015-09-03 14:05:00,82.6,41.2,29.88,SSE,153,1.0,13.0,23,0.00,,,0.00,Weather View 32 v70,2015-09-03 21:05:00,
2015-09-03 14:10:00,82.8,40.7,29.88,ESE,117,5.0,13.0,23,0.00,,,0.00,Weather View 32 v70,2015-09-03 21:10:00,
2015-09-03 14:15:00,83.5,40.9,29.88,SSE,153,0.0,13.0,22,0.00,,,0.00,Weather View 32 v70,2015-09-03 21:15:00,
2015-09-03 14:20:00,84.0,41.3,29.88,SSE,162,1.0,13.0,22,0.00,,,0.00,Weather View 32 v70,2015-09-03 21:20:00,
2015-09-03 14:25:00,83.2,40.8,29.88,SSW,204,3.0,12.0,22,0.00,,,0.00,Weather View 32 v70,2015-09-03 21:25:00,
2015-09-03 14:30:00,82.4,40.5,29.88,SSE,165,3.0,12.0,23,0.00,,,0.00,Weather View 32 v70,2015-09-03 21:30:00,
2015-09-03 14:35:00,84.4,40.9,29.88,SW,232,3.0,12.0,22,0.00,,,0.00,Weather View 32 v70,2015-09-03 21:35:00,
2015-09-03 14:40:00,83.5,42.1,29.88,SW,229,6.0,12.0,23,0.00,,,0.00,Weather View 32 v70,2015-09-03 21:40:00,
2015-09-03 14:45:00,84.2,40.9,29.87,SW,232,5.0,12.0,22,0.00,,,0.00,Weather View 32 v70,2015-09-03 21:45:00,
2015-09-03 14:50:00,83.4,40.2,29.87,SW,224,3.0,12.0,22,0.00,,,0.00,Weather View 32 v70,2015-09-03 21:50:00,
2015-09-03 14:55:00,84.6,39.8,29.87,West,273,0.0,12.0,21,0.00,,,0.00,Weather View 32 v70,2015-09-03 21:55:00,
2015-09-03 15:00:00,84.5,41.1,29.86,WSW,239,7.0,12.0,22,0.00,,,0.00,Weather View 32 v70,2015-09-03 22:00:00,
2015-09-03 15:05:00,83.9,40.5,29.86,SW,215,6.0,12.0,22,0.00,,,0.00,Weather View 32 v70,2015-09-03 22:05:00,
2015-09-03 15:10:00,84.4,41.0,29.86,SSW,201,3.0,12.0,22,0.00,,,0.00,Weather View 32 v70,2015-09-03 22:10:00,
2015-09-03 15:15:00,83.1,40.3,29.86,South,179,6.0,12.0,22,0.00,,,0.00,Weather View 32 v70,2015-09-03 22:15:00,
2015-09-03 15:20:00,84.2,40.9,29.85,WSW,255,5.0,12.0,22,0.00,,,0.00,Weather View 32 v70,2015-09-03 22:20:00,
2015-09-03 15:25:00,83.2,40.9,29.85,South,169,6.0,12.0,23,0.00,,,0.00,Weather View 32 v70,2015-09-03 22:25:00,
2015-09-03 15:30:00,82.8,39.8,29.85,SW,232,8.0,12.0,22,0.00,,,0.00,Weather View 32 v70,2015-09-03 22:30:00,
2015-09-03 15:35:00,84.1,41.2,29.85,SW,233,5.0,12.0,22,0.00,,,0.00,Weather View 32 v70,2015-09-03 22:35:00,
2015-09-03 15:40:00,84.0,39.3,29.85,SSW,204,4.0,12.0,21,0.00,,,0.00,Weather View 32 v70,2015-09-03 22:40:00,
2015-09-03 15:45:00,82.2,40.4,29.84,WSW,248,3.0,12.0,23,0.00,,,0.00,Weather View 32 v70,2015-09-03 22:45:00,
2015-09-03 15:50:00,83.5,41.3,29.84,WNW,284,8.0,12.0,23,0.00,,,0.00,Weather View 32 v70,2015-09-03 22:50:00,
2015-09-03 15:55:00,82.2,41.5,29.84,SW,225,6.0,12.0,24,0.00,,,0.00,Weather View 32 v70,2015-09-03 22:55:00,
2015-09-03 16:00:00,82.4,42.2,29.84,WSW,252,4.0,12.0,24,0.00,,,0.00,Weather View 32 v70,2015-09-03 23:00:00,
2015-09-03 16:05:00,83.0,42.3,29.84,SW,225,2.0,12.0,24,0.00,,,0.00,Weather View 32 v70,2015-09-03 23:05:00,
2015-09-03 16:10:00,83.5,41.9,29.83,SSW,203,3.0,12.0,23,0.00,,,0.00,Weather View 32 v70,2015-09-03 23:10:00,
2015-09-03 16:15:00,83.4,43.1,29.83,WSW,243,6.0,12.0,24,0.00,,,0.00,Weather View 32 v70,2015-09-03 23:15:00,
2015-09-03 16:20:00,82.7,42.2,29.84,SW,229,5.0,12.0,24,0.00,,,0.00,Weather View 32 v70,2015-09-03 23:20:00,
2015-09-03 16:25:00,82.5,43.3,29.83,SSE,167,2.0,12.0,25,0.00,,,0.00,Weather View 32 v70,2015-09-03 23:25:00,
2015-09-03 16:30:00,82.4,43.3,29.83,West,264,4.0,12.0,25,0.00,,,0.00,Weather View 32 v70,2015-09-03 23:30:00,
2015-09-03 16:35:00,82.2,44.1,29.83,SSW,194,6.0,15.0,26,0.00,,,0.00,Weather View 32 v70,2015-09-03 23:35:00,
2015-09-03 16:40:00,82.2,44.6,29.83,SSW,195,7.0,15.0,27,0.00,,,0.00,Weather View 32 v70,2015-09-03 23:40:00,
2015-09-03 16:45:00,81.0,44.1,29.83,West,260,7.0,15.0,27,0.00,,,0.00,Weather View 32 v70,2015-09-03 23:45:00,
2015-09-03 16:50:00,81.3,43.6,29.83,WSW,257,10.0,15.0,27,0.00,,,0.00,Weather View 32 v70,2015-09-03 23:50:00,
2015-09-03 16:55:00,82.2,44.4,29.83,West,263,7.0,15.0,27,0.00,,,0.00,Weather View 32 v70,2015-09-03 23:55:00,
2015-09-03 17:00:00,80.7,43.7,29.83,SW,215,5.0,15.0,27,0.00,,,0.00,Weather View 32 v70,2015-09-04 00:00:00,
2015-09-03 17:05:00,82.2,44.3,29.83,WSW,256,5.0,15.0,27,0.00,,,0.00,Weather View 32 v70,2015-09-04 00:05:00,
2015-09-03 17:10:00,81.5,44.7,29.83,SSW,200,5.0,15.0,28,0.00,,,0.00,Weather View 32 v70,2015-09-04 00:10:00,
2015-09-03 17:11:00,81.3,45.2,29.83,West,273,5.0,15.0,28,0.00,,,0.00,Weather View 32 v70,2015-09-04 00:11:00,
2015-09-03 17:21:00,79.9,46.4,29.82,West,266,7.0,15.0,31,0.00,,,0.00,Weather View 32 v70,2015-09-04 00:21:00,
2015-09-03 17:26:00,80.2,49.4,29.82,West,264,5.0,15.0,34,0.00,,,0.00,Weather View 32 v70,2015-09-04 00:26:00,
2015-09-03 17:31:00,79.9,46.2,29.83,SSW,201,6.0,15.0,31,0.00,,,0.00,Weather View 32 v70,2015-09-04 00:31:00,
2015-09-03 17:36:00,78.9,45.5,29.83,SW,236,4.0,14.0,31,0.00,,,0.00,Weather View 32 v70,2015-09-04 00:36:00,
2015-09-03 17:41:00,79.5,49.4,29.83,WSW,238,5.0,14.0,35,0.00,,,0.00,Weather View 32 v70,2015-09-04 00:41:00,
2015-09-03 17:46:00,78.9,46.1,29.82,SE,131,3.0,14.0,32,0.00,,,0.00,Weather View 32 v70,2015-09-04 00:46:00,
2015-09-03 17:51:00,78.8,46.9,29.82,SW,228,5.0,14.0,33,0.00,,,0.00,Weather View 32 v70,2015-09-04 00:51:00,
2015-09-03 17:56:00,78.3,44.9,29.82,SW,221,9.0,14.0,31,0.00,,,0.00,Weather View 32 v70,2015-09-04 00:56:00,
2015-09-03 18:01:00,78.3,46.4,29.82,West,259,6.0,14.0,33,0.00,,,0.00,Weather View 32 v70,2015-09-04 01:01:00,
2015-09-03 18:11:00,77.4,47.1,29.82,WSW,243,4.0,15.0,35,0.00,,,0.00,Weather View 32 v70,2015-09-04 01:11:00,
2015-09-03 18:16:00,77.9,46.6,29.82,SW,214,5.0,15.0,33,0.00,,,0.00,Weather View 32 v70,2015-09-04 01:16:00,
2015-09-03 18:21:00,77.7,48.4,29.82,SW,226,7.0,15.0,36,0.00,,,0.00,Weather View 32 v70,2015-09-04 01:21:00,
2015-09-03 18:26:00,80.4,44.9,29.82,WSW,240,4.0,15.0,29,0.00,,,0.00,Weather View 32 v70,2015-09-04 01:26:00,
2015-09-03 18:31:00,79.9,45.4,29.82,SSW,201,6.0,15.0,30,0.00,,,0.00,Weather View 32 v70,2015-09-04 01:31:00,
2015-09-03 18:36:00,78.8,45.6,29.82,SSW,211,11.0,15.0,31,0.00,,,0.00,Weather View 32 v70,2015-09-04 01:36:00,
2015-09-03 18:41:00,77.9,45.3,29.82,West,271,7.0,15.0,32,0.00,,,0.00,Weather View 32 v70,2015-09-04 01:41:00,
2015-09-03 18:46:00,77.8,45.9,29.81,WSW,245,4.0,15.0,33,0.00,,,0.00,Weather View 32 v70,2015-09-04 01:46:00,
2015-09-03 18:51:00,77.2,46.3,29.81,SSW,205,3.0,15.0,34,0.00,,,0.00,Weather View 32 v70,2015-09-04 01:51:00,
2015-09-03 18:56:00,76.8,45.9,29.81,West,273,1.0,15.0,34,0.00,,,0.00,Weather View 32 v70,2015-09-04 01:56:00,
2015-09-03 19:06:00,75.5,46.5,29.81,West,274,4.0,15.0,36,0.00,,,0.00,Weather View 32 v70,2015-09-04 02:06:00,
2015-09-03 19:11:00,74.4,46.4,29.81,West,259,5.0,14.0,37,0.00,,,0.00,Weather View 32 v70,2015-09-04 02:11:00,
2015-09-03 19:16:00,74.6,46.9,29.81,SSW,210,4.0,14.0,38,0.00,,,0.00,Weather View 32 v70,2015-09-04 02:16:00,
2015-09-03 19:21:00,74.4,46.7,29.81,WSW,256,4.0,14.0,38,0.00,,,0.00,Weather View 32 v70,2015-09-04 02:21:00,
2015-09-03 19:26:00,73.9,47.4,29.81,West,271,5.0,14.0,39,0.00,,,0.00,Weather View 32 v70,2015-09-04 02:26:00,
2015-09-03 19:31:00,73.3,47.5,29.81,West,271,4.0,14.0,40,0.00,,,0.00,Weather View 32 v70,2015-09-04 02:31:00,